^^
Station Historical Data
 
Daily Summary for February 27, 2020 Units:  English    Metric   Both
Daily Weekly Monthly Yearly Custom
  Current: High: Low: Average:
Temperature: 47.9 °F 48.9 °F 32.8 °F 40.5 °F
Dew Point: 7.7 °F 18.3 °F 7.5 °F 15.2 °F
Humidity: 19.2% 54% 19% 37%
Wind Speed: 12.9mph 29mph 1.6mph 12mph
Wind Gust: 17mph 35mph - -
WindNW - - SW
Pressure: 30.16 in 30.18 in 30.09 in -
Precipitation: 0.00 in      
Historical Graphs
 
 
Tabular Data for February 27, 2020
Time Temperature Dew Point Pressure Wind Wind Speed Wind Gust Humidity Rainfall Rate (Hourly) solar
00:04 40 °F 14.5 °F 30.10 in WSW 4.5 mph 5.8 mph 35% 0.00 in 0 W/m2
00:09 39.7 °F 15.2 °F 30.10 in WSW 4.5 mph 6 mph 36.6% 0.00 in 0 W/m2
00:14 39.2 °F 15.4 °F 30.10 in WSW 3.5 mph 6 mph 37.4% 0.00 in 0 W/m2
00:19 39 °F 15.3 °F 30.10 in SW 2.6 mph 4 mph 37.8% 0.00 in 0 W/m2
00:24 38.7 °F 15.6 °F 30.09 in SE 3.5 mph 3.2 mph 38.6% 0.00 in 0 W/m2
00:29 38.3 °F 15.5 °F 30.09 in SE 5 mph 5.8 mph 39% 0.00 in 0 W/m2
00:34 37.8 °F 15 °F 30.09 in SE 5.2 mph 7 mph 39% 0.00 in 0 W/m2
00:39 37.6 °F 14.8 °F 30.09 in ESE 5.7 mph 6.4 mph 39% 0.00 in 0 W/m2
00:44 37.3 °F 14.7 °F 30.09 in ESE 6.9 mph 7 mph 39.2% 0.00 in 0 W/m2
00:49 36.9 °F 15.2 °F 30.10 in West 6 mph 8 mph 40.8% 0.00 in 0 W/m2
00:54 36.2 °F 15 °F 30.10 in West 2.8 mph 7 mph 41.6% 0.00 in 0 W/m2
00:59 35.9 °F 14.8 °F 30.10 in SE 2.3 mph 3 mph 41.7% 0.00 in 0 W/m2
01:04 35.7 °F 14.9 °F 30.10 in NE 2.7 mph 3 mph 42.2% 0.00 in 0 W/m2
01:09 35.6 °F 14.9 °F 30.10 in NW 1.6 mph 3 mph 42.4% 0.00 in 0 W/m2
01:14 35.5 °F 14.8 °F 30.10 in NE 3.4 mph 2.9 mph 42.4% 0.00 in 0 W/m2
01:19 35.6 °F 14.9 °F 30.10 in ENE 4 mph 4 mph 42.4% 0.00 in 0 W/m2
01:24 35.6 °F 15 °F 30.10 in ENE 2.5 mph 6 mph 42.5% 0.00 in 0 W/m2
01:29 35.2 °F 14.9 °F 30.10 in WSW 8 mph 8 mph 43% 0.00 in 0 W/m2
01:34 34.7 °F 14.9 °F 30.10 in SSW 5 mph 9 mph 43.8% 0.00 in 0 W/m2
01:39 34.8 °F 15.1 °F 30.10 in WSW 4.1 mph 8.1 mph 44.1% 0.00 in 0 W/m2
01:44 34.5 °F 15.3 °F 30.10 in SSW 5.4 mph 9 mph 45% 0.00 in 0 W/m2
01:49 34.4 °F 15.2 °F 30.10 in SSW 2.7 mph 7 mph 45% 0.00 in 0 W/m2
01:54 34.2 °F 15.3 °F 30.09 in WSW 4.1 mph 5 mph 45.6% 0.00 in 0 W/m2
01:59 34.2 °F 15.5 °F 30.09 in West 6.5 mph 7.5 mph 46% 0.00 in 0 W/m2
02:04 34.2 °F 15.5 °F 30.09 in WSW 5.5 mph 9 mph 46% 0.00 in 0 W/m2
02:09 34 °F 15.5 °F 30.09 in WSW 8 mph 7.9 mph 46.2% 0.00 in 0 W/m2
02:14 34.6 °F 16.5 °F 30.09 in West 11.2 mph 10.2 mph 47.2% 0.00 in 0 W/m2
02:19 36.1 °F 17 °F 30.09 in West 10.9 mph 13 mph 45.6% 0.00 in 0 W/m2
02:24 36.6 °F 17.2 °F 30.09 in WNW 11.2 mph 12 mph 45% 0.00 in 0 W/m2
02:29 36.6 °F 16.6 °F 30.09 in West 13.1 mph 14 mph 43.8% 0.00 in 0 W/m2
02:34 37.3 °F 16.5 °F 30.09 in West 13 mph 14 mph 42.4% 0.00 in 0 W/m2
02:39 37.6 °F 16.6 °F 30.09 in West 14 mph 15 mph 42.2% 0.00 in 0 W/m2
02:44 37.5 °F 17 °F 30.09 in WNW 13.9 mph 17 mph 43% 0.00 in 0 W/m2
02:49 37.4 °F 16.9 °F 30.09 in West 13.1 mph 16 mph 43% 0.00 in 0 W/m2
02:54 37.3 °F 16.8 °F 30.09 in West 14.3 mph 14 mph 43% 0.00 in 0 W/m2
02:59 37.4 °F 16.9 °F 30.09 in West 13.7 mph 16 mph 43% 0.00 in 0 W/m2
03:04 37.3 °F 16.8 °F 30.09 in West 12.5 mph 15 mph 43% 0.00 in 0 W/m2
03:09 37.2 °F 17 °F 30.09 in WNW 10.4 mph 14 mph 43.5% 0.00 in 0 W/m2
03:14 36.8 °F 16.9 °F 30.09 in West 8.2 mph 12 mph 44% 0.00 in 0 W/m2
03:19 36.7 °F 16.5 °F 30.09 in WSW 7.9 mph 9 mph 43.4% 0.00 in 0 W/m2
03:24 37.1 °F 16.6 °F 30.09 in WSW 10.5 mph 10.2 mph 43% 0.00 in 0 W/m2
03:29 37.4 °F 16.8 °F 30.10 in NW 5.3 mph 13 mph 42.9% 0.00 in 0 W/m2
03:34 37.3 °F 16.3 °F 30.10 in NNW 7.2 mph 6.8 mph 42% 0.00 in 0 W/m2
03:39 37.2 °F 16.4 °F 30.10 in NW 7.1 mph 9 mph 42.5% 0.00 in 0 W/m2
03:44 36.9 °F 16.6 °F 30.10 in WNW 6.8 mph 8 mph 43.2% 0.00 in 0 W/m2
03:49 36.7 °F 16.8 °F 30.10 in WNW 5.2 mph 8 mph 44% 0.00 in 0 W/m2
03:54 36.3 °F 16.8 °F 30.10 in West 5.4 mph 9 mph 44.7% 0.00 in 0 W/m2
03:59 35.9 °F 16.6 °F 30.10 in WSW 5.6 mph 6 mph 45% 0.00 in 0 W/m2
04:04 35.4 °F 16.4 °F 30.10 in WNW 7.4 mph 11 mph 45.6% 0.00 in 0 W/m2
04:09 35.6 °F 16.8 °F 30.10 in West 9.1 mph 13 mph 46% 0.00 in 0 W/m2
04:14 35.8 °F 17 °F 30.10 in West 6.7 mph 9 mph 46% 0.00 in 0 W/m2
04:19 35.5 °F 17.2 °F 30.10 in West 3.9 mph 8 mph 46.9% 0.00 in 0 W/m2
04:24 35.2 °F 17.3 °F 30.10 in WNW 4.8 mph 5.1 mph 47.5% 0.00 in 0 W/m2
04:29 35 °F 17.4 °F 30.11 in NW 7 mph 7.8 mph 48.2% 0.00 in 0 W/m2
04:34 34.9 °F 17.7 °F 30.11 in NW 9.5 mph 9 mph 49% 0.00 in 0 W/m2
04:39 35.1 °F 17.7 °F 30.11 in NW 10.9 mph 12 mph 48.7% 0.00 in 0 W/m2
04:44 35.4 °F 17.6 °F 30.11 in NW 13.4 mph 15 mph 48% 0.00 in 0 W/m2
04:49 35.9 °F 17.7 °F 30.11 in NW 14.4 mph 14 mph 47.3% 0.00 in 0 W/m2
04:54 36.2 °F 17.9 °F 30.11 in NW 14.3 mph 17 mph 47% 0.00 in 0 W/m2
04:59 36.4 °F 18 °F 30.11 in NW 10.7 mph 15 mph 46.8% 0.00 in 0 W/m2
05:04 36.4 °F 18 °F 30.11 in WNW 8.1 mph 12 mph 47% 0.00 in 0 W/m2
05:09 35.9 °F 18 °F 30.11 in WSW 5.3 mph 9 mph 47.8% 0.00 in 0 W/m2
05:14 34.9 °F 17.7 °F 30.11 in WSW 5.8 mph 7 mph 49% 0.00 in 0 W/m2
05:19 34.3 °F 17.6 °F 30.11 in WSW 4.3 mph 6 mph 50% 0.00 in 0 W/m2
05:24 34 °F 17.5 °F 30.11 in WSW 5.9 mph 6 mph 50.5% 0.00 in 0 W/m2
05:29 33.8 °F 17.5 °F 30.11 in WSW 6.7 mph 7 mph 50.7% 0.00 in 0 W/m2
05:34 33.9 °F 17.2 °F 30.11 in WSW 6.8 mph 7 mph 50% 0.00 in 0 W/m2
05:39 34.1 °F 17.4 °F 30.12 in WSW 8.3 mph 8 mph 50% 0.00 in 0 W/m2
05:44 34 °F 17.7 °F 30.12 in West 6.9 mph 9 mph 50.8% 0.00 in 0 W/m2
05:49 33.4 °F 17.8 °F 30.12 in WSW 9.4 mph 8 mph 52.5% 0.00 in 0 W/m2
05:54 33 °F 18.1 °F 30.12 in WSW 9.1 mph 13 mph 54% 0.00 in 0 W/m2
05:59 33.1 °F 18.2 °F 30.12 in WSW 11.5 mph 11.2 mph 54% 0.00 in 0 W/m2
06:04 33.2 °F 18.3 °F 30.12 in WSW 10.5 mph 14 mph 54% 0.00 in 0 W/m2
06:09 32.9 °F 18.1 °F 30.13 in WSW 11.5 mph 12 mph 54% 0.00 in 0 W/m2
06:14 32.8 °F 18 °F 30.13 in WSW 10.9 mph 12 mph 54% 0.00 in 0 W/m2
06:19 33.2 °F 18 °F 30.13 in WSW 13.6 mph 13 mph 53.3% 0.00 in 0 W/m2
06:24 33.4 °F 17.7 °F 30.13 in WSW 11.3 mph 15 mph 52.2% 0.00 in 0 W/m2
06:29 33.2 °F 17.9 °F 30.13 in WSW 11.3 mph 12 mph 53% 0.00 in 0 W/m2
06:34 33.2 °F 17.9 °F 30.13 in WSW 12.6 mph 13 mph 53% 0.00 in 0 W/m2
06:39 33.2 °F 17.8 °F 30.13 in WSW 12.2 mph 15 mph 52.7% 0.00 in 5 W/m2
06:44 33.3 °F 17.5 °F 30.13 in WSW 11.9 mph 13 mph 52% 0.00 in 9 W/m2
06:49 33.5 °F 17.7 °F 30.14 in WSW 12.3 mph 15 mph 52% 0.00 in 12 W/m2
06:54 33.5 °F 17.3 °F 30.14 in West 11 mph 12 mph 51% 0.00 in 14 W/m2
06:59 33.6 °F 17.4 °F 30.14 in West 11.1 mph 12 mph 51% 0.00 in 25 W/m2
07:04 33.4 °F 17.5 °F 30.14 in West 9.1 mph 12 mph 51.7% 0.00 in 33 W/m2
07:09 33 °F 17.7 °F 30.14 in West 7.4 mph 10 mph 52.9% 0.00 in 44 W/m2
07:14 32.9 °F 17.7 °F 30.14 in West 8.8 mph 8 mph 53.2% 0.00 in 58 W/m2
07:19 33.4 °F 17.4 °F 30.14 in West 8.1 mph 10 mph 51.4% 0.00 in 72 W/m2
07:24 33.9 °F 17.8 °F 30.15 in NW 3.2 mph 12 mph 51.2% 0.00 in 90 W/m2
07:29 34.3 °F 17.7 °F 30.15 in NE 2 mph 4 mph 50.3% 0.00 in 107 W/m2
07:34 34.7 °F 17 °F 30.15 in NE 2.4 mph 3.2 mph 48% 0.00 in 127 W/m2
07:39 35.4 °F 16.4 °F 30.15 in NE 3.8 mph 4 mph 45.6% 0.00 in 146 W/m2
07:44 36 °F 16.7 °F 30.15 in NE 4.2 mph 5 mph 44.9% 0.00 in 165 W/m2
07:49 36.5 °F 16.9 °F 30.15 in East 3.8 mph 5 mph 44.6% 0.00 in 190 W/m2
07:54 37.1 °F 16.6 °F 30.16 in East 8.1 mph 9.4 mph 42.9% 0.00 in 211 W/m2
07:59 37.9 °F 16.5 °F 30.16 in ENE 7.1 mph 12 mph 41.6% 0.00 in 229 W/m2
08:04 38.4 °F 16.6 °F 30.16 in NE 4.6 mph 9 mph 40.8% 0.00 in 251 W/m2
08:09 39 °F 16.1 °F 30.16 in NE 7.3 mph 10 mph 39% 0.00 in 272 W/m2
08:14 39.4 °F 15.9 °F 30.16 in ENE 6.7 mph 8.8 mph 38% 0.00 in 290 W/m2
08:19 39.7 °F 16.2 °F 30.16 in East 7.5 mph 12 mph 38.2% 0.00 in 308 W/m2
08:24 40 °F 16.3 °F 30.17 in SE 4 mph 10 mph 37.8% 0.00 in 322 W/m2
08:29 40.5 °F 16.5 °F 30.17 in ESE 7.1 mph 7.3 mph 37.5% 0.00 in 338 W/m2
08:34 40.5 °F 16.8 °F 30.17 in East 8.1 mph 9.5 mph 37.9% 0.00 in 355 W/m2
08:39 40.4 °F 16.6 °F 30.16 in ESE 12.3 mph 12 mph 37.6% 0.00 in 369 W/m2
08:44 40.1 °F 16.2 °F 30.16 in ESE 12.3 mph 14 mph 37.4% 0.00 in 383 W/m2
08:49 40.1 °F 16.1 °F 30.17 in ESE 13.3 mph 15 mph 37.4% 0.00 in 397 W/m2
08:54 40 °F 15.8 °F 30.17 in ESE 10.9 mph 15 mph 37% 0.00 in 415 W/m2
08:59 40.3 °F 16.1 °F 30.17 in ESE 10.2 mph 13 mph 37% 0.00 in 429 W/m2
09:04 40.6 °F 16.2 °F 30.17 in ESE 9.5 mph 10 mph 36.8% 0.00 in 443 W/m2
09:09 40.7 °F 16.2 °F 30.17 in East 9.9 mph 12 mph 36.6% 0.00 in 457 W/m2
09:14 40.9 °F 16.4 °F 30.17 in East 9.5 mph 12 mph 36.8% 0.00 in 471 W/m2
09:19 41.2 °F 16.2 °F 30.17 in ESE 10.2 mph 10 mph 36% 0.00 in 487 W/m2
09:24 41.3 °F 16.2 °F 30.17 in ESE 9.6 mph 12 mph 35.9% 0.00 in 499 W/m2
09:29 41.4 °F 15.9 °F 30.17 in ESE 8.5 mph 12 mph 35.2% 0.00 in 512 W/m2
09:34 41.7 °F 16.2 °F 30.17 in East 10.6 mph 10 mph 35.4% 0.00 in 522 W/m2
09:39 41.8 °F 16.1 °F 30.18 in ESE 9.9 mph 12 mph 35% 0.00 in 536 W/m2
09:44 41.7 °F 15.7 °F 30.18 in ESE 8 mph 12 mph 34.6% 0.00 in 545 W/m2
09:49 41.7 °F 15.5 °F 30.18 in East 7.9 mph 8 mph 34.3% 0.00 in 557 W/m2
09:54 41.6 °F 16.2 °F 30.18 in East 8.4 mph 9 mph 35.4% 0.00 in 566 W/m2
09:59 41.5 °F 16.6 °F 30.18 in ENE 10.4 mph 9 mph 36.2% 0.00 in 575 W/m2
10:04 41.7 °F 17.1 °F 30.18 in East 9.4 mph 12 mph 36.6% 0.00 in 589 W/m2
10:09 42 °F 16.9 °F 30.18 in ESE 10.5 mph 12 mph 36% 0.00 in 594 W/m2
10:14 42 °F 17.3 °F 30.18 in ENE 8.6 mph 13 mph 36.6% 0.00 in 603 W/m2
10:19 42.1 °F 17.7 °F 30.18 in East 11.1 mph 10 mph 37% 0.00 in 612 W/m2
10:24 42.1 °F 17.2 °F 30.18 in East 10.5 mph 12 mph 36.3% 0.00 in 621 W/m2
10:29 42.6 °F 15.8 °F 30.18 in SSE 15 mph 16.6 mph 33.5% 0.00 in 629 W/m2
10:34 43.1 °F 15.4 °F 30.18 in South 14 mph 23 mph 32.3% 0.00 in 638 W/m2
10:39 43.2 °F 16.5 °F 30.18 in NNE 12.2 mph 14 mph 33.8% 0.00 in 645 W/m2
10:44 42.8 °F 16 °F 30.18 in ENE 9.1 mph 15 mph 33.6% 0.00 in 664 W/m2
10:49 43.5 °F 16.5 °F 30.18 in ENE 8.6 mph 9 mph 33.4% 0.00 in 675 W/m2
10:54 44 °F 16.7 °F 30.18 in NW 6.1 mph 10 mph 33% 0.00 in 668 W/m2
10:59 44.7 °F 15.5 °F 30.18 in West 16.3 mph 17.8 mph 30.6% 0.00 in 677 W/m2
11:04 45 °F 14.9 °F 30.18 in NW 10.3 mph 24 mph 29.4% 0.00 in 684 W/m2
11:09 45.5 °F 16.1 °F 30.18 in NW 11.3 mph 11.9 mph 30.4% 0.00 in 712 W/m2
11:14 45.3 °F 15.3 °F 30.18 in West 17.5 mph 17.4 mph 29.6% 0.00 in 712 W/m2
11:19 44.9 °F 14.4 °F 30.17 in West 23.2 mph 22 mph 28.9% 0.00 in 701 W/m2
11:24 44.7 °F 14.2 °F 30.17 in West 21.6 mph 29 mph 28.8% 0.00 in 719 W/m2
11:29 45 °F 14.2 °F 30.17 in WSW 23.6 mph 28 mph 28.6% 0.00 in 724 W/m2
11:34 45 °F 14 °F 30.17 in WSW 22.5 mph 25 mph 28.2% 0.00 in 728 W/m2
11:39 44.9 °F 14.1 °F 30.17 in WSW 25 mph 24 mph 28.5% 0.00 in 749 W/m2
11:44 45.1 °F 14.5 °F 30.17 in West 25.5 mph 28 mph 28.8% 0.00 in 779 W/m2
11:49 45.4 °F 14.7 °F 30.17 in West 23.1 mph 29 mph 28.8% 0.00 in 761 W/m2
11:54 45.3 °F 14.2 °F 30.17 in West 26.1 mph 27 mph 28.2% 0.00 in 758 W/m2
11:59 45.4 °F 14.2 °F 30.17 in West 25.2 mph 31 mph 28% 0.00 in 821 W/m2
12:04 45.7 °F 14.1 °F 30.17 in WSW 23.9 mph 29 mph 27.6% 0.00 in 858 W/m2
12:09 45.9 °F 14.4 °F 30.17 in West 26.8 mph 26 mph 27.8% 0.00 in 858 W/m2
12:14 45.7 °F 14.3 °F 30.16 in West 27.3 mph 29 mph 27.9% 0.00 in 814 W/m2
12:19 45.8 °F 14.4 °F 30.16 in West 29 mph 31 mph 27.9% 0.00 in 779 W/m2
12:24 46.1 °F 14.6 °F 30.16 in West 23.1 mph 35 mph 27.8% 0.00 in 765 W/m2
12:29 46.4 °F 13.9 °F 30.16 in WSW 22.1 mph 26 mph 26.7% 0.00 in 740 W/m2
12:34 46.5 °F 14.6 °F 30.16 in WSW 20 mph 25 mph 27.4% 0.00 in 742 W/m2
12:39 46.6 °F 14.2 °F 30.16 in NW 15.2 mph 25 mph 26.8% 0.00 in 733 W/m2
12:44 47 °F 14.6 °F 30.16 in NW 16.1 mph 17 mph 26.8% 0.00 in 761 W/m2
12:49 47.3 °F 15.2 °F 30.16 in NNW 14.4 mph 20 mph 27.2% 0.00 in 831 W/m2
12:54 47.7 °F 15 °F 30.16 in NNW 13.5 mph 16 mph 26.6% 0.00 in 840 W/m2
12:59 47.7 °F 15.3 °F 30.16 in North 17.3 mph 16 mph 27% 0.00 in 840 W/m2
13:04 47.5 °F 14.8 °F 30.16 in North 12.1 mph 20 mph 26.6% 0.00 in 846 W/m2
13:09 47.9 °F 15.7 °F 30.16 in North 11.7 mph 14 mph 27.2% 0.00 in 865 W/m2
13:14 48.3 °F 15.8 °F 30.16 in NNW 10 mph 12 mph 27% 0.00 in 865 W/m2
13:19 48.7 °F 15.4 °F 30.16 in NNW 10.2 mph 12 mph 26% 0.00 in 770 W/m2
13:24 48.5 °F 15.4 °F 30.16 in NNW 11.5 mph 12 mph 26.4% 0.00 in 802 W/m2
13:29 48.3 °F 15.3 °F 30.16 in North 12.1 mph 12.1 mph 26.5% 0.00 in 809 W/m2
13:34 48.2 °F 15.5 °F 30.15 in North 13.1 mph 16 mph 26.7% 0.00 in 773 W/m2
13:39 48 °F 14.4 °F 30.15 in NNW 10.9 mph 15 mph 25.6% 0.00 in 789 W/m2
13:44 48.3 °F 14 °F 30.15 in NW 11.3 mph 13 mph 25% 0.00 in 789 W/m2
13:49 48.9 °F 11.6 °F 30.15 in NW 15.3 mph 16 mph 22% 0.00 in 877 W/m2
13:54 48.9 °F 10.4 °F 30.15 in WNW 17.1 mph 18 mph 20.8% 0.00 in 353 W/m2
13:59 48.6 °F 11 °F 30.15 in WNW 18.8 mph 17 mph 21.5% 0.00 in 726 W/m2
14:04 48.8 °F 12.2 °F 30.15 in West 17.7 mph 23 mph 22.6% 0.00 in 726 W/m2
14:09 48.9 °F 12.7 °F 30.15 in West 23.8 mph 22.9 mph 23% 0.00 in 677 W/m2
14:14 48.5 °F 12.7 °F 30.15 in West 22.6 mph 29 mph 23.4% 0.00 in 610 W/m2
14:19 48.6 °F 13 °F 30.15 in WNW 17.1 mph 27 mph 23.6% 0.00 in 628 W/m2
14:24 48.7 °F 12.5 °F 30.15 in West 21.6 mph 19.8 mph 23% 0.00 in 617 W/m2
14:29 48.5 °F 11.8 °F 30.15 in WNW 20.7 mph 25 mph 22.6% 0.00 in 598 W/m2
14:34 48.6 °F 12.2 °F 30.15 in WNW 19 mph 21 mph 22.8% 0.00 in 589 W/m2
14:39 48.7 °F 12.3 °F 30.15 in WNW 21.2 mph 22 mph 22.8% 0.00 in 557 W/m2
14:44 48.7 °F 12.5 °F 30.15 in WNW 22.7 mph 23 mph 23% 0.00 in 552 W/m2
14:49 48.4 °F 12.2 °F 30.15 in WNW 23.1 mph 27 mph 23% 0.00 in 543 W/m2
14:54 48.2 °F 11.9 °F 30.15 in WNW 24.4 mph 25 mph 22.8% 0.00 in 540 W/m2
14:59 48.2 °F 11.9 °F 30.15 in WNW 22.9 mph 29 mph 22.8% 0.00 in 541 W/m2
15:04 48.1 °F 10.9 °F 30.15 in West 26.1 mph 30 mph 21.9% 0.00 in 582 W/m2
15:09 47.9 °F 10.1 °F 30.15 in WNW 26.2 mph 27 mph 21.3% 0.00 in 603 W/m2
15:14 48 °F 10.1 °F 30.15 in WNW 24 mph 32 mph 21.2% 0.00 in 606 W/m2
15:19 48 °F 9.9 °F 30.15 in WNW 20.1 mph 27 mph 21% 0.00 in 601 W/m2
15:24 48 °F 10.4 °F 30.15 in WNW 17.8 mph 21 mph 21.6% 0.00 in 383 W/m2
15:29 47.9 °F 10.8 °F 30.16 in WNW 19.3 mph 18 mph 22% 0.00 in 504 W/m2
15:34 47.8 °F 10.2 °F 30.16 in WNW 20.5 mph 22 mph 21.6% 0.00 in 475 W/m2
15:39 47.3 °F 8.8 °F 30.16 in WNW 25.6 mph 21.9 mph 20.5% 0.00 in 211 W/m2
15:44 47.1 °F 8.8 °F 30.16 in WNW 18 mph 27 mph 20.7% 0.00 in 230 W/m2
15:49 47.2 °F 8.8 °F 30.16 in WNW 19.8 mph 22 mph 20.7% 0.00 in 408 W/m2
15:54 47.3 °F 8.8 °F 30.16 in NW 17.9 mph 24 mph 20.6% 0.00 in 408 W/m2
15:59 47.5 °F 9.4 °F 30.16 in NW 19.9 mph 21 mph 21% 0.00 in 380 W/m2
16:04 47.8 °F 8.9 °F 30.16 in NW 21.7 mph 26 mph 20.3% 0.00 in 376 W/m2
16:09 47.8 °F 8.3 °F 30.16 in NW 18.9 mph 24 mph 19.8% 0.00 in 345 W/m2
16:14 47.7 °F 8.3 °F 30.16 in NW 17.6 mph 20 mph 19.8% 0.00 in 325 W/m2
16:19 47.7 °F 8.2 °F 30.16 in WNW 17.9 mph 20 mph 19.7% 0.00 in 316 W/m2
16:24 47.8 °F 7.5 °F 30.16 in WNW 16.5 mph 18 mph 19% 0.00 in 306 W/m2
16:29 47.8 °F 7.5 °F 30.16 in NW 15.2 mph 20 mph 19% 0.00 in 285 W/m2
16:34 47.9 °F 7.7 °F 30.16 in NW 12.9 mph 17 mph 19.2% 0.00 in 265 W/m2
Rockcreek-Hillcrest Superior, Colorado, USA
Compliments of Weather Underground - 2 mb